sensor_id;sensor_type;location;lat;lon;timestamp;temperature;humidity
19007;DHT22;9636;47.382;8.480;2023-04-03T00:01:18;15.80;99.90
19007;DHT22;9636;47.382;8.480;2023-04-03T00:03:45;15.80;99.90
19007;DHT22;9636;47.382;8.480;2023-04-03T00:06:13;15.80;99.90
19007;DHT22;9636;47.382;8.480;2023-04-03T00:08:41;15.80;99.90
19007;DHT22;9636;47.382;8.480;2023-04-03T00:11:08;15.70;99.90
19007;DHT22;9636;47.382;8.480;2023-04-03T00:13:35;15.70;99.90
19007;DHT22;9636;47.382;8.480;2023-04-03T00:16:03;15.70;99.90
19007;DHT22;9636;47.382;8.480;2023-04-03T00:18:29;15.70;99.90
19007;DHT22;9636;47.382;8.480;2023-04-03T00:20:56;15.60;99.90
19007;DHT22;9636;47.382;8.480;2023-04-03T00:23:25;15.70;99.90
19007;DHT22;9636;47.382;8.480;2023-04-03T00:25:52;15.60;99.90
19007;DHT22;9636;47.382;8.480;2023-04-03T00:28:19;15.60;99.90
19007;DHT22;9636;47.382;8.480;2023-04-03T00:30:45;15.60;99.90
19007;DHT22;9636;47.382;8.480;2023-04-03T00:33:13;15.50;99.90
19007;DHT22;9636;47.382;8.480;2023-04-03T00:35:40;15.60;99.90
19007;DHT22;9636;47.382;8.480;2023-04-03T00:38:07;15.50;99.90
19007;DHT22;9636;47.382;8.480;2023-04-03T00:40:37;15.50;99.90
19007;DHT22;9636;47.382;8.480;2023-04-03T00:43:11;15.50;99.90
19007;DHT22;9636;47.382;8.480;2023-04-03T00:45:41;15.50;99.90
19007;DHT22;9636;47.382;8.480;2023-04-03T00:48:11;15.50;99.90
19007;DHT22;9636;47.382;8.480;2023-04-03T00:50:41;15.40;99.90
19007;DHT22;9636;47.382;8.480;2023-04-03T00:53:12;15.40;99.90
19007;DHT22;9636;47.382;8.480;2023-04-03T00:55:42;15.40;99.90
19007;DHT22;9636;47.382;8.480;2023-04-03T00:58:10;15.40;99.90
19007;DHT22;9636;47.382;8.480;2023-04-03T01:00:40;15.40;99.90
19007;DHT22;9636;47.382;8.480;2023-04-03T01:03:08;15.30;99.90
19007;DHT22;9636;47.382;8.480;2023-04-03T01:05:35;15.30;99.90
19007;DHT22;9636;47.382;8.480;2023-04-03T01:08:03;15.30;99.90
19007;DHT22;9636;47.382;8.480;2023-04-03T01:10:30;15.30;99.90
19007;DHT22;9636;47.382;8.480;2023-04-03T01:13:00;15.30;99.90
19007;DHT22;9636;47.382;8.480;2023-04-03T01:15:28;15.20;99.90
19007;DHT22;9636;47.382;8.480;2023-04-03T01:17:57;15.20;99.90
19007;DHT22;9636;47.382;8.480;2023-04-03T01:20:43;15.20;99.90
19007;DHT22;9636;47.382;8.480;2023-04-03T01:23:41;15.20;99.90
19007;DHT22;9636;47.382;8.480;2023-04-03T01:26:12;15.10;99.90
19007;DHT22;9636;47.382;8.480;2023-04-03T01:28:40;15.10;99.90
19007;DHT22;9636;47.382;8.480;2023-04-03T01:31:14;15.10;99.90
19007;DHT22;9636;47.382;8.480;2023-04-03T01:33:43;15.10;99.90
19007;DHT22;9636;47.382;8.480;2023-04-03T01:36:16;15.10;99.90
19007;DHT22;9636;47.382;8.480;2023-04-03T01:38:44;15.00;99.90
19007;DHT22;9636;47.382;8.480;2023-04-03T01:41:10;15.00;99.90
19007;DHT22;9636;47.382;8.480;2023-04-03T01:43:37;15.00;99.90
19007;DHT22;9636;47.382;8.480;2023-04-03T01:46:04;15.00;99.90
19007;DHT22;9636;47.382;8.480;2023-04-03T01:48:31;15.00;99.90
19007;DHT22;9636;47.382;8.480;2023-04-03T01:50:59;14.90;99.90
19007;DHT22;9636;47.382;8.480;2023-04-03T01:53:26;14.90;99.90
19007;DHT22;9636;47.382;8.480;2023-04-03T01:55:53;14.90;99.90
19007;DHT22;9636;47.382;8.480;2023-04-03T01:58:20;14.90;99.90
19007;DHT22;9636;47.382;8.480;2023-04-03T02:00:46;14.90;99.90
19007;DHT22;9636;47.382;8.480;2023-04-03T02:03:13;14.90;99.90
19007;DHT22;9636;47.382;8.480;2023-04-03T02:05:40;14.80;99.90
19007;DHT22;9636;47.382;8.480;2023-04-03T02:08:09;14.80;99.90
19007;DHT22;9636;47.382;8.480;2023-04-03T02:10:36;14.80;99.90
19007;DHT22;9636;47.382;8.480;2023-04-03T02:13:03;14.80;99.90
19007;DHT22;9636;47.382;8.480;2023-04-03T02:15:30;14.70;99.90
19007;DHT22;9636;47.382;8.480;2023-04-03T02:17:57;14.70;99.90
19007;DHT22;9636;47.382;8.480;2023-04-03T02:20:24;14.70;99.90
19007;DHT22;9636;47.382;8.480;2023-04-03T02:22:50;14.70;99.90
19007;DHT22;9636;47.382;8.480;2023-04-03T02:25:19;14.70;99.90
19007;DHT22;9636;47.382;8.480;2023-04-03T02:27:45;14.70;99.90
19007;DHT22;9636;47.382;8.480;2023-04-03T02:30:12;14.60;99.90
19007;DHT22;9636;47.382;8.480;2023-04-03T02:32:40;14.60;99.90
19007;DHT22;9636;47.382;8.480;2023-04-03T02:35:08;14.60;99.90
19007;DHT22;9636;47.382;8.480;2023-04-03T02:37:35;14.60;99.90
19007;DHT22;9636;47.382;8.480;2023-04-03T02:40:02;14.50;99.90
19007;DHT22;9636;47.382;8.480;2023-04-03T02:42:31;14.50;99.90
19007;DHT22;9636;47.382;8.480;2023-04-03T02:44:58;14.50;99.90
19007;DHT22;9636;47.382;8.480;2023-04-03T02:47:26;14.50;99.90
19007;DHT22;9636;47.382;8.480;2023-04-03T02:49:52;14.50;99.90
19007;DHT22;9636;47.382;8.480;2023-04-03T02:52:20;14.40;99.90
19007;DHT22;9636;47.382;8.480;2023-04-03T02:54:47;14.40;99.90
19007;DHT22;9636;47.382;8.480;2023-04-03T02:57:13;14.40;99.90
19007;DHT22;9636;47.382;8.480;2023-04-03T02:59:41;14.40;99.90
19007;DHT22;9636;47.382;8.480;2023-04-03T03:02:09;14.40;99.90
19007;DHT22;9636;47.382;8.480;2023-04-03T03:04:36;14.40;99.90
19007;DHT22;9636;47.382;8.480;2023-04-03T03:07:03;14.30;99.90
19007;DHT22;9636;47.382;8.480;2023-04-03T03:09:30;14.30;99.90
19007;DHT22;9636;47.382;8.480;2023-04-03T03:11:57;14.30;99.90
19007;DHT22;9636;47.382;8.480;2023-04-03T03:14:24;14.30;99.90
19007;DHT22;9636;47.382;8.480;2023-04-03T03:16:52;14.20;99.90
19007;DHT22;9636;47.382;8.480;2023-04-03T03:19:19;14.20;99.90
19007;DHT22;9636;47.382;8.480;2023-04-03T03:21:45;14.20;99.90
19007;DHT22;9636;47.382;8.480;2023-04-03T03:24:12;14.20;99.90
19007;DHT22;9636;47.382;8.480;2023-04-03T03:26:41;14.20;99.90
19007;DHT22;9636;47.382;8.480;2023-04-03T03:29:08;14.20;99.90
19007;DHT22;9636;47.382;8.480;2023-04-03T03:31:35;14.20;99.90
19007;DHT22;9636;47.382;8.480;2023-04-03T03:34:03;14.10;99.90
19007;DHT22;9636;47.382;8.480;2023-04-03T03:36:30;14.10;99.90
19007;DHT22;9636;47.382;8.480;2023-04-03T03:38:57;14.10;99.90
19007;DHT22;9636;47.382;8.480;2023-04-03T03:41:24;14.10;99.90
19007;DHT22;9636;47.382;8.480;2023-04-03T03:43:50;14.10;99.90
19007;DHT22;9636;47.382;8.480;2023-04-03T03:46:17;14.00;99.90
19007;DHT22;9636;47.382;8.480;2023-04-03T03:48:44;14.00;99.90
19007;DHT22;9636;47.382;8.480;2023-04-03T03:51:12;14.00;99.90
19007;DHT22;9636;47.382;8.480;2023-04-03T03:53:39;14.00;99.90
19007;DHT22;9636;47.382;8.480;2023-04-03T03:56:07;13.90;99.90
19007;DHT22;9636;47.382;8.480;2023-04-03T03:58:33;13.90;99.90
19007;DHT22;9636;47.382;8.480;2023-04-03T04:01:01;13.90;99.90
19007;DHT22;9636;47.382;8.480;2023-04-03T04:03:28;13.90;99.90
19007;DHT22;9636;47.382;8.480;2023-04-03T04:05:55;13.80;99.90
19007;DHT22;9636;47.382;8.480;2023-04-03T04:08:23;13.80;99.90
19007;DHT22;9636;47.382;8.480;2023-04-03T04:10:50;13.80;99.90
19007;DHT22;9636;47.382;8.480;2023-04-03T04:13:17;13.80;99.90
19007;DHT22;9636;47.382;8.480;2023-04-03T04:15:44;13.80;99.90
19007;DHT22;9636;47.382;8.480;2023-04-03T04:18:10;13.80;99.90
19007;DHT22;9636;47.382;8.480;2023-04-03T04:20:37;13.80;99.90
19007;DHT22;9636;47.382;8.480;2023-04-03T04:23:04;13.70;99.90
19007;DHT22;9636;47.382;8.480;2023-04-03T04:25:32;13.70;99.90
19007;DHT22;9636;47.382;8.480;2023-04-03T04:27:59;13.70;99.90
19007;DHT22;9636;47.382;8.480;2023-04-03T04:30:26;13.70;99.90
19007;DHT22;9636;47.382;8.480;2023-04-03T04:32:53;13.60;99.90
19007;DHT22;9636;47.382;8.480;2023-04-03T04:35:19;13.60;99.90
19007;DHT22;9636;47.382;8.480;2023-04-03T04:37:46;13.60;99.90
19007;DHT22;9636;47.382;8.480;2023-04-03T04:40:13;13.60;99.90
19007;DHT22;9636;47.382;8.480;2023-04-03T04:42:42;13.60;99.90
19007;DHT22;9636;47.382;8.480;2023-04-03T04:45:09;13.60;99.90
19007;DHT22;9636;47.382;8.480;2023-04-03T04:47:36;13.50;99.90
19007;DHT22;9636;47.382;8.480;2023-04-03T04:50:04;13.50;99.90
19007;DHT22;9636;47.382;8.480;2023-04-03T04:52:31;13.50;99.90
19007;DHT22;9636;47.382;8.480;2023-04-03T04:54:58;13.50;99.90
19007;DHT22;9636;47.382;8.480;2023-04-03T04:57:25;13.50;99.90
19007;DHT22;9636;47.382;8.480;2023-04-03T04:59:53;13.50;99.90
19007;DHT22;9636;47.382;8.480;2023-04-03T05:02:20;13.40;99.90
19007;DHT22;9636;47.382;8.480;2023-04-03T05:04:46;13.40;99.90
19007;DHT22;9636;47.382;8.480;2023-04-03T05:07:15;13.40;99.90
19007;DHT22;9636;47.382;8.480;2023-04-03T05:09:42;13.40;99.90
19007;DHT22;9636;47.382;8.480;2023-04-03T05:12:09;13.40;99.90
19007;DHT22;9636;47.382;8.480;2023-04-03T05:14:35;13.30;99.90
19007;DHT22;9636;47.382;8.480;2023-04-03T05:17:04;13.30;99.90
19007;DHT22;9636;47.382;8.480;2023-04-03T05:19:30;13.30;99.90
19007;DHT22;9636;47.382;8.480;2023-04-03T05:21:57;13.30;99.90
19007;DHT22;9636;47.382;8.480;2023-04-03T05:24:24;13.30;99.90
19007;DHT22;9636;47.382;8.480;2023-04-03T05:26:51;13.30;99.90
19007;DHT22;9636;47.382;8.480;2023-04-03T05:29:18;13.30;99.90
19007;DHT22;9636;47.382;8.480;2023-04-03T05:31:45;13.30;99.90
19007;DHT22;9636;47.382;8.480;2023-04-03T05:34:13;13.20;99.90
19007;DHT22;9636;47.382;8.480;2023-04-03T05:36:40;13.30;99.90
19007;DHT22;9636;47.382;8.480;2023-04-03T05:39:07;13.20;99.90
19007;DHT22;9636;47.382;8.480;2023-04-03T05:41:33;13.20;99.90
19007;DHT22;9636;47.382;8.480;2023-04-03T05:44:00;13.20;99.90
19007;DHT22;9636;47.382;8.480;2023-04-03T05:46:27;13.20;99.90
19007;DHT22;9636;47.382;8.480;2023-04-03T05:48:54;13.20;99.90
19007;DHT22;9636;47.382;8.480;2023-04-03T05:51:25;13.20;99.90
19007;DHT22;9636;47.382;8.480;2023-04-03T05:53:59;13.20;99.90
19007;DHT22;9636;47.382;8.480;2023-04-03T05:56:27;13.20;99.90
19007;DHT22;9636;47.382;8.480;2023-04-03T05:58:54;13.10;99.90
19007;DHT22;9636;47.382;8.480;2023-04-03T06:01:21;13.20;99.90
19007;DHT22;9636;47.382;8.480;2023-04-03T06:03:48;13.10;99.90
19007;DHT22;9636;47.382;8.480;2023-04-03T06:06:15;13.10;99.90
19007;DHT22;9636;47.382;8.480;2023-04-03T06:08:43;13.10;99.90
19007;DHT22;9636;47.382;8.480;2023-04-03T06:11:11;13.10;99.90
19007;DHT22;9636;47.382;8.480;2023-04-03T06:13:38;13.10;99.90
19007;DHT22;9636;47.382;8.480;2023-04-03T06:16:06;13.10;99.90
19007;DHT22;9636;47.382;8.480;2023-04-03T06:18:34;13.10;99.90
19007;DHT22;9636;47.382;8.480;2023-04-03T06:21:01;13.10;99.90
19007;DHT22;9636;47.382;8.480;2023-04-03T06:23:28;13.10;99.90
19007;DHT22;9636;47.382;8.480;2023-04-03T06:25:56;13.10;99.90
19007;DHT22;9636;47.382;8.480;2023-04-03T06:28:23;13.10;99.90
19007;DHT22;9636;47.382;8.480;2023-04-03T06:30:50;13.10;99.90
19007;DHT22;9636;47.382;8.480;2023-04-03T06:33:17;13.10;99.90
19007;DHT22;9636;47.382;8.480;2023-04-03T06:35:44;13.10;99.90
19007;DHT22;9636;47.382;8.480;2023-04-03T06:38:11;13.10;99.90
19007;DHT22;9636;47.382;8.480;2023-04-03T06:40:38;13.10;99.90
19007;DHT22;9636;47.382;8.480;2023-04-03T06:43:06;13.10;99.90
19007;DHT22;9636;47.382;8.480;2023-04-03T06:45:33;13.20;99.90
19007;DHT22;9636;47.382;8.480;2023-04-03T06:48:01;13.20;99.90
19007;DHT22;9636;47.382;8.480;2023-04-03T06:50:28;13.20;99.90
19007;DHT22;9636;47.382;8.480;2023-04-03T06:52:55;13.20;99.90
19007;DHT22;9636;47.382;8.480;2023-04-03T06:55:22;13.20;99.90
19007;DHT22;9636;47.382;8.480;2023-04-03T06:57:49;13.20;99.90
19007;DHT22;9636;47.382;8.480;2023-04-03T07:00:18;13.20;99.90
19007;DHT22;9636;47.382;8.480;2023-04-03T07:02:45;13.20;99.90
19007;DHT22;9636;47.382;8.480;2023-04-03T07:05:12;13.20;99.90
19007;DHT22;9636;47.382;8.480;2023-04-03T07:07:39;13.30;99.90
19007;DHT22;9636;47.382;8.480;2023-04-03T07:10:07;13.30;99.90
19007;DHT22;9636;47.382;8.480;2023-04-03T07:12:35;13.30;99.90
19007;DHT22;9636;47.382;8.480;2023-04-03T07:15:03;13.30;99.90
19007;DHT22;9636;47.382;8.480;2023-04-03T07:17:31;13.40;99.90
19007;DHT22;9636;47.382;8.480;2023-04-03T07:19:58;13.40;99.90
19007;DHT22;9636;47.382;8.480;2023-04-03T07:22:25;13.40;99.90
19007;DHT22;9636;47.382;8.480;2023-04-03T07:24:52;13.40;99.90
19007;DHT22;9636;47.382;8.480;2023-04-03T07:27:19;13.50;99.90
19007;DHT22;9636;47.382;8.480;2023-04-03T07:29:46;13.50;99.90
19007;DHT22;9636;47.382;8.480;2023-04-03T07:32:13;13.50;99.90
19007;DHT22;9636;47.382;8.480;2023-04-03T07:34:42;13.50;99.90
19007;DHT22;9636;47.382;8.480;2023-04-03T07:37:09;13.50;99.90
19007;DHT22;9636;47.382;8.480;2023-04-03T07:39:35;13.60;99.90
19007;DHT22;9636;47.382;8.480;2023-04-03T07:42:03;13.50;99.90
19007;DHT22;9636;47.382;8.480;2023-04-03T07:44:29;13.60;99.90
19007;DHT22;9636;47.382;8.480;2023-04-03T07:46:56;13.60;99.90
19007;DHT22;9636;47.382;8.480;2023-04-03T07:49:23;13.70;99.90
19007;DHT22;9636;47.382;8.480;2023-04-03T07:51:52;13.70;99.90
19007;DHT22;9636;47.382;8.480;2023-04-03T07:54:19;13.80;99.90
19007;DHT22;9636;47.382;8.480;2023-04-03T07:56:46;13.80;99.90
19007;DHT22;9636;47.382;8.480;2023-04-03T07:59:13;13.90;99.90
19007;DHT22;9636;47.382;8.480;2023-04-03T08:01:40;13.90;99.90
19007;DHT22;9636;47.382;8.480;2023-04-03T08:04:07;13.90;99.90
19007;DHT22;9636;47.382;8.480;2023-04-03T08:06:34;14.00;99.90
19007;DHT22;9636;47.382;8.480;2023-04-03T08:09:04;14.00;99.90
19007;DHT22;9636;47.382;8.480;2023-04-03T08:11:31;14.10;99.90
19007;DHT22;9636;47.382;8.480;2023-04-03T08:13:58;14.20;99.90
19007;DHT22;9636;47.382;8.480;2023-04-03T08:16:25;14.20;99.90
19007;DHT22;9636;47.382;8.480;2023-04-03T08:18:53;14.20;99.90
19007;DHT22;9636;47.382;8.480;2023-04-03T08:21:20;14.20;99.90
19007;DHT22;9636;47.382;8.480;2023-04-03T08:23:49;14.30;99.90
19007;DHT22;9636;47.382;8.480;2023-04-03T08:26:19;14.30;99.90
19007;DHT22;9636;47.382;8.480;2023-04-03T08:28:47;14.30;99.90
19007;DHT22;9636;47.382;8.480;2023-04-03T08:31:16;14.40;99.90
19007;DHT22;9636;47.382;8.480;2023-04-03T08:33:44;14.40;99.90
19007;DHT22;9636;47.382;8.480;2023-04-03T08:36:18;14.40;99.90
19007;DHT22;9636;47.382;8.480;2023-04-03T08:38:46;14.40;99.90
19007;DHT22;9636;47.382;8.480;2023-04-03T08:41:19;14.40;99.90
19007;DHT22;9636;47.382;8.480;2023-04-03T08:43:56;14.40;99.90
19007;DHT22;9636;47.382;8.480;2023-04-03T08:46:31;14.50;99.90
19007;DHT22;9636;47.382;8.480;2023-04-03T08:49:04;14.50;99.90
19007;DHT22;9636;47.382;8.480;2023-04-03T08:51:33;14.60;99.90
19007;DHT22;9636;47.382;8.480;2023-04-03T08:54:03;14.60;99.90
19007;DHT22;9636;47.382;8.480;2023-04-03T08:56:33;14.60;99.90
19007;DHT22;9636;47.382;8.480;2023-04-03T08:59:05;14.70;99.90
19007;DHT22;9636;47.382;8.480;2023-04-03T09:01:35;14.70;99.90
19007;DHT22;9636;47.382;8.480;2023-04-03T09:04:09;14.70;99.90
19007;DHT22;9636;47.382;8.480;2023-04-03T09:06:38;14.70;99.90
19007;DHT22;9636;47.382;8.480;2023-04-03T09:09:12;14.80;99.90
19007;DHT22;9636;47.382;8.480;2023-04-03T09:11:49;14.80;99.90
19007;DHT22;9636;47.382;8.480;2023-04-03T09:14:22;14.80;99.90
19007;DHT22;9636;47.382;8.480;2023-04-03T09:16:54;14.90;99.90
19007;DHT22;9636;47.382;8.480;2023-04-03T09:19:28;14.90;99.90
19007;DHT22;9636;47.382;8.480;2023-04-03T09:22:02;15.00;99.90
19007;DHT22;9636;47.382;8.480;2023-04-03T09:24:31;15.00;99.90
19007;DHT22;9636;47.382;8.480;2023-04-03T09:27:04;15.10;99.90
19007;DHT22;9636;47.382;8.480;2023-04-03T09:29:36;15.10;99.90
19007;DHT22;9636;47.382;8.480;2023-04-03T09:32:19;15.20;99.90
19007;DHT22;9636;47.382;8.480;2023-04-03T09:34:48;15.20;99.90
19007;DHT22;9636;47.382;8.480;2023-04-03T09:37:38;15.20;99.90
19007;DHT22;9636;47.382;8.480;2023-04-03T09:40:12;15.30;99.90
19007;DHT22;9636;47.382;8.480;2023-04-03T09:42:57;15.30;99.90
19007;DHT22;9636;47.382;8.480;2023-04-03T09:45:26;15.30;99.90
19007;DHT22;9636;47.382;8.480;2023-04-03T09:48:05;15.40;99.90
19007;DHT22;9636;47.382;8.480;2023-04-03T09:50:33;15.40;99.90
19007;DHT22;9636;47.382;8.480;2023-04-03T09:53:04;15.40;99.90
19007;DHT22;9636;47.382;8.480;2023-04-03T09:55:33;15.50;99.90
19007;DHT22;9636;47.382;8.480;2023-04-03T09:58:24;15.50;99.90
19007;DHT22;9636;47.382;8.480;2023-04-03T10:00:55;15.60;99.90
19007;DHT22;9636;47.382;8.480;2023-04-03T10:03:25;15.60;99.90
19007;DHT22;9636;47.382;8.480;2023-04-03T10:05:53;15.60;99.90
19007;DHT22;9636;47.382;8.480;2023-04-03T10:08:23;15.70;99.90
19007;DHT22;9636;47.382;8.480;2023-04-03T10:11:13;15.70;99.90
19007;DHT22;9636;47.382;8.480;2023-04-03T10:13:55;15.80;99.90
19007;DHT22;9636;47.382;8.480;2023-04-03T10:16:27;15.90;99.90
19007;DHT22;9636;47.382;8.480;2023-04-03T10:19:21;16.00;99.90
19007;DHT22;9636;47.382;8.480;2023-04-03T10:21:57;16.10;99.90
19007;DHT22;9636;47.382;8.480;2023-04-03T10:24:30;16.10;99.90
19007;DHT22;9636;47.382;8.480;2023-04-03T10:27:02;16.20;99.90
19007;DHT22;9636;47.382;8.480;2023-04-03T10:29:39;16.20;99.90
19007;DHT22;9636;47.382;8.480;2023-04-03T10:32:26;16.20;99.90
19007;DHT22;9636;47.382;8.480;2023-04-03T10:35:02;16.30;99.90
19007;DHT22;9636;47.382;8.480;2023-04-03T10:37:45;16.30;99.90
19007;DHT22;9636;47.382;8.480;2023-04-03T10:40:22;16.40;99.90
19007;DHT22;9636;47.382;8.480;2023-04-03T10:42:53;16.40;99.90
19007;DHT22;9636;47.382;8.480;2023-04-03T10:45:26;16.50;99.90
19007;DHT22;9636;47.382;8.480;2023-04-03T10:48:00;16.50;99.90
19007;DHT22;9636;47.382;8.480;2023-04-03T10:50:38;16.60;99.90
19007;DHT22;9636;47.382;8.480;2023-04-03T10:53:13;16.50;99.90
19007;DHT22;9636;47.382;8.480;2023-04-03T10:55:44;16.60;99.90
19007;DHT22;9636;47.382;8.480;2023-04-03T10:58:19;16.70;99.90
19007;DHT22;9636;47.382;8.480;2023-04-03T11:00:50;16.70;99.90
19007;DHT22;9636;47.382;8.480;2023-04-03T11:03:27;16.70;99.90
19007;DHT22;9636;47.382;8.480;2023-04-03T11:05:57;16.70;99.90
19007;DHT22;9636;47.382;8.480;2023-04-03T11:08:28;16.60;99.90
19007;DHT22;9636;47.382;8.480;2023-04-03T11:10:59;16.60;99.90
19007;DHT22;9636;47.382;8.480;2023-04-03T11:13:33;16.60;99.90
19007;DHT22;9636;47.382;8.480;2023-04-03T11:16:03;16.70;99.90
19007;DHT22;9636;47.382;8.480;2023-04-03T11:18:37;16.80;99.90
19007;DHT22;9636;47.382;8.480;2023-04-03T11:21:10;16.80;99.90
19007;DHT22;9636;47.382;8.480;2023-04-03T11:23:40;16.90;99.90
19007;DHT22;9636;47.382;8.480;2023-04-03T11:26:10;16.90;99.90
19007;DHT22;9636;47.382;8.480;2023-04-03T11:28:38;16.90;99.90
19007;DHT22;9636;47.382;8.480;2023-04-03T11:31:15;16.80;99.90
19007;DHT22;9636;47.382;8.480;2023-04-03T11:33:53;16.80;99.90
19007;DHT22;9636;47.382;8.480;2023-04-03T11:36:24;16.80;99.90
19007;DHT22;9636;47.382;8.480;2023-04-03T11:38:54;16.80;99.90
19007;DHT22;9636;47.382;8.480;2023-04-03T11:41:26;16.70;99.90
19007;DHT22;9636;47.382;8.480;2023-04-03T11:43:59;16.70;99.90
19007;DHT22;9636;47.382;8.480;2023-04-03T11:46:50;16.80;99.90
19007;DHT22;9636;47.382;8.480;2023-04-03T11:55:45;17.00;99.90
19007;DHT22;9636;47.382;8.480;2023-04-03T11:58:14;17.00;99.90
19007;DHT22;9636;47.382;8.480;2023-04-03T12:01:07;17.00;99.90
19007;DHT22;9636;47.382;8.480;2023-04-03T12:07:08;17.00;99.90
19007;DHT22;9636;47.382;8.480;2023-04-03T12:10:13;17.00;99.90
19007;DHT22;9636;47.382;8.480;2023-04-03T12:12:42;17.10;99.90
19007;DHT22;9636;47.382;8.480;2023-04-03T12:15:38;17.20;99.90
19007;DHT22;9636;47.382;8.480;2023-04-03T12:21:19;17.30;99.90
19007;DHT22;9636;47.382;8.480;2023-04-03T12:24:03;17.40;99.90
19007;DHT22;9636;47.382;8.480;2023-04-03T12:26:34;17.30;99.90
19007;DHT22;9636;47.382;8.480;2023-04-03T12:29:13;17.30;99.90
19007;DHT22;9636;47.382;8.480;2023-04-03T12:31:48;17.30;99.90
19007;DHT22;9636;47.382;8.480;2023-04-03T12:34:26;17.40;99.90
19007;DHT22;9636;47.382;8.480;2023-04-03T12:37:02;17.30;99.90
19007;DHT22;9636;47.382;8.480;2023-04-03T12:39:50;17.30;99.90
19007;DHT22;9636;47.382;8.480;2023-04-03T12:42:31;17.40;99.90
19007;DHT22;9636;47.382;8.480;2023-04-03T12:45:03;17.40;99.90
19007;DHT22;9636;47.382;8.480;2023-04-03T12:47:37;17.40;99.90
19007;DHT22;9636;47.382;8.480;2023-04-03T12:50:18;17.50;99.90
19007;DHT22;9636;47.382;8.480;2023-04-03T12:52:52;17.40;99.90
19007;DHT22;9636;47.382;8.480;2023-04-03T12:55:22;17.50;99.90
19007;DHT22;9636;47.382;8.480;2023-04-03T12:57:49;17.40;99.90
19007;DHT22;9636;47.382;8.480;2023-04-03T13:00:29;17.50;99.90
19007;DHT22;9636;47.382;8.480;2023-04-03T13:02:58;17.50;99.90
19007;DHT22;9636;47.382;8.480;2023-04-03T13:05:25;17.50;99.90
19007;DHT22;9636;47.382;8.480;2023-04-03T13:07:56;17.50;99.90
19007;DHT22;9636;47.382;8.480;2023-04-03T13:10:25;17.40;99.90
19007;DHT22;9636;47.382;8.480;2023-04-03T13:12:54;17.50;99.90
19007;DHT22;9636;47.382;8.480;2023-04-03T13:15:23;17.50;99.90
19007;DHT22;9636;47.382;8.480;2023-04-03T13:17:52;17.50;99.90
19007;DHT22;9636;47.382;8.480;2023-04-03T13:20:22;17.50;99.90
19007;DHT22;9636;47.382;8.480;2023-04-03T13:22:52;17.40;99.90
19007;DHT22;9636;47.382;8.480;2023-04-03T13:25:21;17.50;99.90
19007;DHT22;9636;47.382;8.480;2023-04-03T13:27:50;17.50;99.90
19007;DHT22;9636;47.382;8.480;2023-04-03T13:30:21;17.50;99.90
19007;DHT22;9636;47.382;8.480;2023-04-03T13:32:49;17.50;99.90
19007;DHT22;9636;47.382;8.480;2023-04-03T13:35:28;17.50;99.90
19007;DHT22;9636;47.382;8.480;2023-04-03T13:37:57;17.50;99.90
19007;DHT22;9636;47.382;8.480;2023-04-03T13:40:25;17.50;99.90
19007;DHT22;9636;47.382;8.480;2023-04-03T13:43:02;17.40;99.90
19007;DHT22;9636;47.382;8.480;2023-04-03T13:45:29;17.40;99.90
19007;DHT22;9636;47.382;8.480;2023-04-03T13:48:09;17.40;99.90
19007;DHT22;9636;47.382;8.480;2023-04-03T13:50:57;17.40;99.90
19007;DHT22;9636;47.382;8.480;2023-04-03T13:53:25;17.40;99.90
19007;DHT22;9636;47.382;8.480;2023-04-03T13:55:57;17.30;99.90
19007;DHT22;9636;47.382;8.480;2023-04-03T13:58:26;17.40;99.90
19007;DHT22;9636;47.382;8.480;2023-04-03T14:00:56;17.40;99.90
19007;DHT22;9636;47.382;8.480;2023-04-03T14:03:30;17.40;99.90
19007;DHT22;9636;47.382;8.480;2023-04-03T14:05:58;17.50;99.90
19007;DHT22;9636;47.382;8.480;2023-04-03T14:08:26;17.40;99.90
19007;DHT22;9636;47.382;8.480;2023-04-03T14:10:53;17.30;99.90
19007;DHT22;9636;47.382;8.480;2023-04-03T14:13:21;17.30;99.90
19007;DHT22;9636;47.382;8.480;2023-04-03T14:15:49;17.30;99.90
19007;DHT22;9636;47.382;8.480;2023-04-03T14:18:19;17.30;99.90
19007;DHT22;9636;47.382;8.480;2023-04-03T14:20:47;17.30;99.90
19007;DHT22;9636;47.382;8.480;2023-04-03T14:23:14;17.30;99.90
19007;DHT22;9636;47.382;8.480;2023-04-03T14:25:42;17.20;99.90
19007;DHT22;9636;47.382;8.480;2023-04-03T14:28:16;17.20;99.90
19007;DHT22;9636;47.382;8.480;2023-04-03T14:30:43;17.20;99.90
19007;DHT22;9636;47.382;8.480;2023-04-03T14:33:14;17.20;99.90
19007;DHT22;9636;47.382;8.480;2023-04-03T14:35:42;17.10;99.90
19007;DHT22;9636;47.382;8.480;2023-04-03T14:38:21;17.10;99.90
19007;DHT22;9636;47.382;8.480;2023-04-03T14:40:48;17.20;99.90
19007;DHT22;9636;47.382;8.480;2023-04-03T14:43:15;17.10;99.90
19007;DHT22;9636;47.382;8.480;2023-04-03T14:45:43;17.10;99.90
19007;DHT22;9636;47.382;8.480;2023-04-03T14:48:15;17.10;99.90
19007;DHT22;9636;47.382;8.480;2023-04-03T14:50:43;17.10;99.90
19007;DHT22;9636;47.382;8.480;2023-04-03T14:53:12;17.10;99.90
19007;DHT22;9636;47.382;8.480;2023-04-03T14:55:40;17.10;99.90
19007;DHT22;9636;47.382;8.480;2023-04-03T14:58:09;17.10;99.90
19007;DHT22;9636;47.382;8.480;2023-04-03T15:00:38;17.10;99.90
19007;DHT22;9636;47.382;8.480;2023-04-03T15:03:05;17.00;99.90
19007;DHT22;9636;47.382;8.480;2023-04-03T15:05:35;17.00;99.90
19007;DHT22;9636;47.382;8.480;2023-04-03T15:08:02;17.00;99.90
19007;DHT22;9636;47.382;8.480;2023-04-03T15:10:31;17.00;99.90
19007;DHT22;9636;47.382;8.480;2023-04-03T15:12:58;16.90;99.90
19007;DHT22;9636;47.382;8.480;2023-04-03T15:15:28;16.90;99.90
19007;DHT22;9636;47.382;8.480;2023-04-03T15:17:56;16.80;99.90
19007;DHT22;9636;47.382;8.480;2023-04-03T15:20:25;16.80;99.90
19007;DHT22;9636;47.382;8.480;2023-04-03T15:22:54;16.80;99.90
19007;DHT22;9636;47.382;8.480;2023-04-03T15:25:22;16.80;99.90
19007;DHT22;9636;47.382;8.480;2023-04-03T15:27:50;16.70;99.90
19007;DHT22;9636;47.382;8.480;2023-04-03T15:30:18;16.70;99.90
19007;DHT22;9636;47.382;8.480;2023-04-03T15:32:46;16.70;99.90
19007;DHT22;9636;47.382;8.480;2023-04-03T15:35:13;16.70;99.90
19007;DHT22;9636;47.382;8.480;2023-04-03T15:37:40;16.70;99.90
19007;DHT22;9636;47.382;8.480;2023-04-03T15:40:09;16.60;99.90
19007;DHT22;9636;47.382;8.480;2023-04-03T15:42:36;16.60;99.90
19007;DHT22;9636;47.382;8.480;2023-04-03T15:45:04;16.60;99.90
19007;DHT22;9636;47.382;8.480;2023-04-03T15:47:31;16.60;99.90
19007;DHT22;9636;47.382;8.480;2023-04-03T15:49:58;16.50;99.90
19007;DHT22;9636;47.382;8.480;2023-04-03T15:52:25;16.50;99.90
19007;DHT22;9636;47.382;8.480;2023-04-03T15:54:51;16.50;99.90
19007;DHT22;9636;47.382;8.480;2023-04-03T15:57:19;16.50;99.90
19007;DHT22;9636;47.382;8.480;2023-04-03T15:59:51;16.40;99.90
19007;DHT22;9636;47.382;8.480;2023-04-03T16:02:18;16.40;99.90
19007;DHT22;9636;47.382;8.480;2023-04-03T16:04:45;16.40;99.90
19007;DHT22;9636;47.382;8.480;2023-04-03T16:07:12;16.40;99.90
19007;DHT22;9636;47.382;8.480;2023-04-03T16:09:38;16.30;99.90
19007;DHT22;9636;47.382;8.480;2023-04-03T16:12:05;16.30;99.90
19007;DHT22;9636;47.382;8.480;2023-04-03T16:14:34;16.30;99.90